Time;durP1;ratioP1;P1;durP2;ratioP2;P2;SDS_P1;SDS_P2;PMS_P1;PMS_P2;Temp;Humidity;BMP_temperature;BMP_pressure;BME280_temperature;BME280_humidity;BME280_pressure;Samples;Min_cycle;Max_cycle;Signal;HPM_P1;HPM_P2
2021/12/29 00:00:27;;;;;;;7.23;3.40;;;10.80;99.90;;;;;;5055384;28;20216;-69
2021/12/29 00:02:54;;;;;;;4.07;3.67;;;10.80;99.90;;;;;;5055555;28;20174;-69
2021/12/29 00:05:21;;;;;;;3.80;3.00;;;10.80;99.90;;;;;;5055486;28;20295;-69
2021/12/29 00:07:46;;;;;;;3.37;3.07;;;10.80;99.90;;;;;;5054320;28;20177;-69
2021/12/29 00:10:14;;;;;;;6.83;3.63;;;10.90;99.90;;;;;;5054289;28;20646;-70
2021/12/29 00:12:44;;;;;;;3.70;3.30;;;10.80;99.90;;;;;;5055378;28;20165;-70
2021/12/29 00:15:13;;;;;;;5.57;3.20;;;10.80;99.90;;;;;;5055399;28;20287;-70
2021/12/29 00:17:40;;;;;;;3.60;2.87;;;10.70;99.90;;;;;;5055490;28;20166;-70
2021/12/29 00:20:07;;;;;;;3.77;3.23;;;10.80;99.90;;;;;;5055376;28;20645;-69
2021/12/29 00:22:33;;;;;;;5.80;3.07;;;10.80;99.90;;;;;;5054875;28;20166;-70
2021/12/29 00:24:58;;;;;;;6.70;3.57;;;10.70;99.90;;;;;;5055086;28;20205;-71
2021/12/29 00:27:24;;;;;;;4.80;3.33;;;10.80;99.90;;;;;;5055326;28;20169;-70
2021/12/29 00:29:50;;;;;;;6.50;3.20;;;10.70;99.90;;;;;;5054861;28;20173;-70
2021/12/29 00:32:15;;;;;;;8.10;2.90;;;10.70;99.90;;;;;;5055164;28;20158;-70
2021/12/29 00:34:41;;;;;;;4.63;3.07;;;10.70;99.90;;;;;;5055186;28;20256;-70
2021/12/29 00:37:06;;;;;;;5.07;3.03;;;10.60;99.90;;;;;;5055032;28;20173;-70
2021/12/29 00:39:32;;;;;;;3.40;2.73;;;10.70;99.90;;;;;;5053851;28;20169;-70
2021/12/29 00:41:58;;;;;;;5.73;3.23;;;10.70;99.90;;;;;;5054796;28;20164;-70
2021/12/29 00:44:24;;;;;;;6.43;3.33;;;10.70;99.90;;;;;;5054423;28;20201;-70
2021/12/29 00:46:53;;;;;;;3.80;3.20;;;10.80;99.90;;;;;;5055055;28;20169;-70
2021/12/29 00:49:20;;;;;;;5.27;3.53;;;10.80;99.90;;;;;;5054939;28;20203;-70
2021/12/29 00:51:47;;;;;;;4.77;3.07;;;10.80;99.90;;;;;;5054812;28;20703;-69
2021/12/29 00:54:12;;;;;;;5.73;3.37;;;10.90;99.90;;;;;;5054923;28;20170;-69
2021/12/29 00:56:38;;;;;;;7.47;3.40;;;10.90;99.90;;;;;;5054501;28;20243;-70
2021/12/29 00:59:04;;;;;;;8.10;4.53;;;11.00;99.90;;;;;;5052884;28;20176;-70
2021/12/29 01:01:30;;;;;;;5.47;4.03;;;11.00;99.90;;;;;;5053427;28;20172;-69
2021/12/29 01:03:56;;;;;;;6.40;4.57;;;10.90;99.90;;;;;;5054594;28;20270;-69
2021/12/29 01:06:22;;;;;;;6.33;4.37;;;10.90;99.90;;;;;;5054503;28;20644;-69
2021/12/29 01:08:47;;;;;;;6.30;4.70;;;10.90;99.90;;;;;;5054353;28;20521;-69
2021/12/29 01:11:14;;;;;;;6.17;4.57;;;10.90;99.90;;;;;;5054252;28;20208;-70
2021/12/29 01:13:46;;;;;;;4.90;4.40;;;10.90;99.90;;;;;;5053910;28;20177;-69
2021/12/29 01:16:36;;;;;;;5.00;4.50;;;11.00;99.90;;;;;;5054409;28;20540;-70
2021/12/29 01:19:19;;;;;;;5.10;4.60;;;10.90;99.90;;;;;;5054185;28;20185;-70
2021/12/29 01:21:47;;;;;;;5.60;5.03;;;10.90;99.90;;;;;;5054366;28;20242;-70
2021/12/29 01:24:14;;;;;;;5.40;4.40;;;10.90;99.90;;;;;;5053769;28;20227;-70
2021/12/29 01:26:43;;;;;;;8.23;4.47;;;10.90;99.90;;;;;;5054141;28;20166;-71
2021/12/29 01:29:12;;;;;;;5.57;4.33;;;10.90;99.90;;;;;;5053630;28;20169;-70
2021/12/29 01:31:38;;;;;;;4.73;4.20;;;10.90;99.90;;;;;;5054155;28;20169;-70
2021/12/29 01:34:04;;;;;;;6.57;3.90;;;10.90;99.90;;;;;;5053968;28;20651;-69
2021/12/29 01:36:32;;;;;;;5.77;4.00;;;10.90;99.90;;;;;;5053887;28;20624;-71
2021/12/29 01:38:57;;;;;;;4.40;4.00;;;11.00;99.90;;;;;;5054074;28;20200;-70
2021/12/29 01:41:23;;;;;;;7.83;4.20;;;11.00;99.90;;;;;;5053726;28;20647;-71
2021/12/29 01:43:49;;;;;;;5.97;3.97;;;11.00;99.90;;;;;;5053279;28;20176;-70
2021/12/29 01:46:14;;;;;;;6.13;3.90;;;10.90;99.90;;;;;;5053758;28;20208;-70
2021/12/29 01:48:40;;;;;;;8.07;4.17;;;11.00;99.90;;;;;;5053794;28;20710;-70
2021/12/29 01:51:06;;;;;;;3.87;3.50;;;11.00;99.90;;;;;;5053617;28;20554;-70
2021/12/29 01:53:34;;;;;;;5.27;3.90;;;11.00;99.90;;;;;;5053763;28;20177;-71
2021/12/29 01:55:59;;;;;;;6.17;4.10;;;11.00;99.90;;;;;;5053418;28;20186;-71
2021/12/29 01:58:25;;;;;;;6.03;4.73;;;10.90;99.90;;;;;;5051768;28;20173;-71
2021/12/29 02:00:53;;;;;;;5.60;4.00;;;10.90;99.90;;;;;;5053588;28;20600;-71
2021/12/29 02:03:19;;;;;;;4.80;4.10;;;10.90;99.90;;;;;;5053579;28;20217;-71
2021/12/29 02:05:45;;;;;;;5.70;4.50;;;11.00;99.90;;;;;;5053281;28;20236;-70
2021/12/29 02:08:11;;;;;;;8.73;4.33;;;11.00;99.90;;;;;;5053420;28;20235;-70
2021/12/29 02:10:46;;;;;;;5.80;3.90;;;11.10;99.90;;;;;;5052490;28;20242;-71
2021/12/29 02:13:13;;;;;;;6.43;4.00;;;11.00;99.90;;;;;;5053441;28;20165;-70
2021/12/29 02:15:39;;;;;;;8.63;3.80;;;11.00;99.90;;;;;;5053451;28;20173;-71
2021/12/29 02:18:12;;;;;;;6.13;3.47;;;11.10;99.90;;;;;;5053394;28;20181;-71
2021/12/29 02:20:40;;;;;;;8.07;3.80;;;11.10;99.90;;;;;;5053269;28;20252;-72
2021/12/29 02:23:24;;;;;;;3.93;3.53;;;11.00;99.90;;;;;;5052708;28;20270;-72
2021/12/29 02:25:52;;;;;;;5.23;3.50;;;11.00;99.90;;;;;;5052810;28;20676;-70
2021/12/29 02:28:26;;;;;;;3.77;3.30;;;11.10;99.90;;;;;;5052940;28;20526;-70
2021/12/29 02:30:52;;;;;;;5.80;3.87;;;11.10;99.90;;;;;;5053138;28;20211;-70
2021/12/29 02:33:18;;;;;;;4.37;3.43;;;11.10;99.90;;;;;;5051971;28;20264;-70
2021/12/29 02:35:45;;;;;;;5.57;3.83;;;11.00;99.90;;;;;;5053013;28;20696;-71
2021/12/29 02:38:31;;;;;;;5.10;3.73;;;11.00;99.90;;;;;;5051648;28;20173;-71
2021/12/29 02:41:01;;;;;;;5.23;3.20;;;11.00;99.90;;;;;;5052714;28;20200;-70
2021/12/29 02:43:27;;;;;;;5.53;3.83;;;11.00;99.90;;;;;;5053075;28;20653;-70
2021/12/29 02:45:59;;;;;;;7.40;3.37;;;11.00;99.90;;;;;;5052913;28;20200;-70
2021/12/29 02:48:27;;;;;;;4.70;3.33;;;10.90;99.90;;;;;;5052855;28;20209;-70
2021/12/29 02:50:56;;;;;;;5.53;3.53;;;10.90;99.90;;;;;;5053052;28;20173;-70
2021/12/29 02:53:26;;;;;;;4.70;3.13;;;10.90;99.90;;;;;;5052638;28;20162;-70
2021/12/29 02:55:53;;;;;;;6.10;3.50;;;10.90;99.90;;;;;;5052502;28;20283;-70
2021/12/29 02:58:19;;;;;;;7.57;3.50;;;11.00;99.90;;;;;;5052617;28;20524;-70
2021/12/29 03:00:45;;;;;;;7.77;3.40;;;11.10;99.90;;;;;;5052769;28;20238;-70
2021/12/29 03:03:16;;;;;;;5.33;3.30;;;11.10;99.90;;;;;;5052798;28;20212;-70
2021/12/29 03:05:43;;;;;;;5.80;3.60;;;11.10;99.90;;;;;;5052646;28;20231;-71
2021/12/29 03:08:08;;;;;;;4.57;3.30;;;11.00;99.90;;;;;;5052516;28;20689;-70
2021/12/29 03:10:34;;;;;;;5.97;3.33;;;11.00;99.90;;;;;;5052442;28;20197;-71
2021/12/29 03:13:00;;;;;;;6.90;3.40;;;11.00;99.90;;;;;;5052485;28;20694;-70
2021/12/29 03:15:25;;;;;;;6.83;3.50;;;10.90;99.90;;;;;;5052444;28;20166;-71
2021/12/29 03:17:51;;;;;;;5.60;3.67;;;11.00;99.90;;;;;;5052531;28;20173;-71
2021/12/29 03:20:16;;;;;;;4.17;3.10;;;11.00;99.90;;;;;;5052670;28;20181;-71
2021/12/29 03:22:42;;;;;;;6.93;3.83;;;11.10;99.90;;;;;;5053146;28;20645;-70
2021/12/29 03:25:08;;;;;;;5.47;3.40;;;11.10;99.90;;;;;;5055965;28;20621;-70
2021/12/29 03:27:33;;;;;;;5.63;3.13;;;11.10;99.90;;;;;;5056452;28;20177;-70
2021/12/29 03:29:59;;;;;;;5.77;3.40;;;11.10;99.90;;;;;;5056049;28;20170;-70
2021/12/29 03:32:38;;;;;;;5.30;3.60;;;11.10;99.90;;;;;;5056257;28;20181;-70
2021/12/29 03:35:04;;;;;;;5.57;4.10;;;11.10;99.90;;;;;;5055865;28;20161;-70
2021/12/29 03:37:29;;;;;;;6.70;3.77;;;11.10;99.90;;;;;;5056289;28;20231;-70
2021/12/29 03:39:55;;;;;;;5.20;3.90;;;11.20;99.90;;;;;;5055674;28;20699;-69
2021/12/29 03:42:20;;;;;;;5.23;3.87;;;11.10;99.90;;;;;;5055966;28;20176;-69
2021/12/29 03:44:46;;;;;;;5.53;4.00;;;11.10;99.90;;;;;;5055861;28;20576;-71
2021/12/29 03:47:12;;;;;;;6.87;4.10;;;11.10;99.90;;;;;;5056230;28;20196;-71
2021/12/29 03:49:37;;;;;;;5.47;3.87;;;11.10;99.90;;;;;;5055747;28;20624;-71
2021/12/29 03:52:05;;;;;;;5.03;3.93;;;11.10;99.90;;;;;;5055718;28;20211;-71
2021/12/29 03:54:31;;;;;;;4.00;3.53;;;11.20;99.90;;;;;;5055738;28;20188;-70
2021/12/29 03:57:00;;;;;;;6.03;3.70;;;11.20;99.90;;;;;;5055815;28;20205;-71
2021/12/29 03:59:27;;;;;;;6.27;3.67;;;11.20;99.90;;;;;;5055672;28;20192;-70
2021/12/29 04:01:53;;;;;;;5.63;3.87;;;11.20;99.90;;;;;;5055742;28;20169;-71
2021/12/29 04:04:20;;;;;;;9.57;3.80;;;11.30;99.90;;;;;;5055424;28;20211;-70
2021/12/29 04:06:46;;;;;;;4.20;3.30;;;11.30;99.90;;;;;;5053860;28;20204;-71
2021/12/29 04:09:12;;;;;;;8.03;3.80;;;11.20;99.90;;;;;;5055579;28;20209;-71
2021/12/29 04:11:37;;;;;;;7.13;3.87;;;11.20;99.90;;;;;;5055400;28;20208;-72
2021/12/29 04:14:03;;;;;;;5.47;3.60;;;11.10;99.90;;;;;;5054035;28;20520;-71
2021/12/29 04:16:29;;;;;;;6.10;3.60;;;11.00;99.90;;;;;;5055493;28;20181;-71
2021/12/29 04:19:14;;;;;;;8.37;3.57;;;11.00;99.90;;;;;;5055121;28;20172;-71
2021/12/29 04:21:41;;;;;;;6.27;3.60;;;11.00;99.90;;;;;;5054781;28;20177;-71
2021/12/29 04:24:07;;;;;;;7.93;3.77;;;11.10;99.90;;;;;;5054687;28;20229;-70
2021/12/29 04:26:36;;;;;;;10.60;4.20;;;11.10;99.90;;;;;;5055267;28;20173;-70
2021/12/29 04:29:03;;;;;;;7.13;3.60;;;11.20;99.90;;;;;;5055036;28;20184;-71
2021/12/29 04:31:28;;;;;;;8.40;4.00;;;11.10;99.90;;;;;;5055113;28;20162;-70
2021/12/29 04:33:54;;;;;;;4.80;3.40;;;11.20;99.90;;;;;;5054266;28;20174;-70
2021/12/29 04:36:26;;;;;;;8.77;3.63;;;11.20;99.90;;;;;;5053367;28;20304;-69
2021/12/29 04:38:54;;;;;;;7.43;3.70;;;11.10;99.90;;;;;;5054841;28;20177;-70
2021/12/29 04:41:20;;;;;;;7.37;3.47;;;11.00;99.90;;;;;;5054897;28;20184;-69
2021/12/29 04:43:46;;;;;;;5.60;3.63;;;11.00;99.90;;;;;;5054576;28;20169;-70
2021/12/29 04:46:17;;;;;;;7.17;3.53;;;11.10;99.90;;;;;;5054810;28;20515;-70
2021/12/29 04:48:51;;;;;;;7.40;3.30;;;11.10;99.90;;;;;;5054442;28;20164;-70
2021/12/29 04:51:24;;;;;;;8.87;3.33;;;11.10;99.90;;;;;;5054158;28;20670;-70
2021/12/29 04:53:51;;;;;;;8.70;3.57;;;11.20;99.90;;;;;;5054253;28;20177;-70
2021/12/29 04:56:17;;;;;;;9.50;3.20;;;11.10;99.90;;;;;;5054150;28;20196;-70
2021/12/29 04:58:43;;;;;;;7.47;2.90;;;11.10;99.90;;;;;;5054225;28;20165;-71
2021/12/29 05:01:09;;;;;;;7.17;3.40;;;11.20;99.90;;;;;;5054641;28;20169;-70
2021/12/29 05:03:37;;;;;;;10.33;3.20;;;11.20;99.90;;;;;;5054444;28;20188;-69
2021/12/29 05:08:31;;;;;;;7.80;2.83;;;11.20;99.90;;;;;;5053972;28;20168;-70
2021/12/29 05:11:04;;;;;;;8.57;3.20;;;11.20;99.90;;;;;;5054036;28;20181;-70
2021/12/29 05:13:33;;;;;;;10.07;2.93;;;11.20;99.90;;;;;;5054062;28;20253;-70
2021/12/29 05:15:59;;;;;;;6.53;2.80;;;11.20;99.90;;;;;;5054213;28;20181;-71
2021/12/29 05:18:27;;;;;;;10.77;3.00;;;11.20;99.90;;;;;;5052572;28;20578;-70
2021/12/29 05:20:54;;;;;;;7.57;2.87;;;11.20;99.90;;;;;;5053774;28;20192;-70
2021/12/29 05:23:20;;;;;;;5.20;2.83;;;11.20;99.90;;;;;;5053584;28;20218;-71
2021/12/29 05:25:47;;;;;;;5.97;2.57;;;11.20;99.90;;;;;;5053692;28;20563;-70
2021/12/29 05:28:13;;;;;;;6.53;2.77;;;11.30;99.90;;;;;;5053905;28;20173;-70
2021/12/29 05:30:38;;;;;;;7.80;3.10;;;11.30;99.90;;;;;;5053762;28;20176;-71
2021/12/29 05:33:05;;;;;;;9.73;3.30;;;11.20;99.90;;;;;;5053408;28;20179;-70
2021/12/29 05:35:31;;;;;;;8.63;3.00;;;11.10;99.90;;;;;;5053291;28;20188;-70
2021/12/29 05:37:59;;;;;;;9.33;3.90;;;10.90;99.90;;;;;;5053613;28;20183;-70
2021/12/29 05:40:26;;;;;;;9.93;3.27;;;10.90;99.90;;;;;;5053546;28;20544;-70
2021/12/29 05:42:53;;;;;;;9.63;3.23;;;11.00;99.90;;;;;;5053607;28;20181;-70
2021/12/29 05:45:18;;;;;;;5.80;2.93;;;11.10;99.90;;;;;;5051989;28;20343;-69
2021/12/29 05:47:45;;;;;;;8.67;3.20;;;11.10;99.90;;;;;;5053505;28;20174;-70
2021/12/29 05:50:14;;;;;;;10.30;3.50;;;11.20;99.90;;;;;;5051952;28;20177;-70
2021/12/29 05:52:40;;;;;;;10.27;3.60;;;11.10;99.90;;;;;;5053102;28;20175;-71
2021/12/29 05:55:06;;;;;;;10.03;3.20;;;11.20;99.90;;;;;;5052721;28;20169;-70
2021/12/29 05:57:32;;;;;;;7.83;3.70;;;11.30;99.90;;;;;;5053208;28;20684;-71
2021/12/29 05:59:58;;;;;;;6.20;3.50;;;11.20;99.90;;;;;;5051726;28;20264;-71
2021/12/29 06:02:24;;;;;;;10.80;3.60;;;11.20;99.90;;;;;;5052901;28;20177;-70
2021/12/29 06:04:49;;;;;;;8.70;3.27;;;11.20;99.90;;;;;;5052825;28;20224;-71
2021/12/29 06:07:15;;;;;;;6.83;3.50;;;11.10;99.90;;;;;;5053178;28;20654;-70
2021/12/29 06:09:41;;;;;;;8.33;3.50;;;11.00;99.90;;;;;;5051095;28;20729;-70
2021/12/29 06:12:08;;;;;;;7.67;3.20;;;11.10;99.90;;;;;;5052859;28;20609;-70
2021/12/29 06:14:33;;;;;;;8.70;3.17;;;11.00;99.90;;;;;;5051690;28;20173;-71
2021/12/29 06:16:59;;;;;;;7.63;3.50;;;11.00;99.90;;;;;;5052798;28;20162;-70
2021/12/29 06:19:25;;;;;;;10.80;3.57;;;10.90;99.90;;;;;;5052245;28;20173;-70
2021/12/29 06:21:51;;;;;;;7.10;3.53;;;10.90;99.90;;;;;;5053210;28;20656;-70
2021/12/29 06:24:16;;;;;;;8.60;3.37;;;10.80;99.90;;;;;;5052311;28;20568;-70
2021/12/29 06:26:42;;;;;;;9.17;3.40;;;10.70;99.90;;;;;;5052709;28;20675;-70
2021/12/29 06:29:08;;;;;;;10.50;3.40;;;10.70;99.90;;;;;;5052161;28;20724;-70
2021/12/29 06:31:33;;;;;;;8.60;3.60;;;10.60;99.90;;;;;;5052696;28;20260;-70
2021/12/29 06:34:00;;;;;;;9.13;3.33;;;10.50;99.90;;;;;;5051959;28;20602;-70
2021/12/29 06:36:26;;;;;;;6.27;3.20;;;10.60;99.90;;;;;;5052820;28;20172;-71
2021/12/29 06:38:52;;;;;;;7.80;3.87;;;10.60;99.90;;;;;;5052787;28;20177;-70
2021/12/29 06:41:17;;;;;;;4.30;2.97;;;10.60;99.90;;;;;;5051755;28;20238;-70
2021/12/29 06:43:43;;;;;;;9.73;3.40;;;10.50;99.90;;;;;;5050793;28;20181;-70
2021/12/29 06:46:09;;;;;;;6.83;3.30;;;10.60;99.90;;;;;;5052268;28;20269;-70
2021/12/29 06:48:34;;;;;;;10.97;3.50;;;10.50;99.90;;;;;;5050762;28;20199;-70
2021/12/29 06:51:00;;;;;;;4.70;2.87;;;10.40;99.90;;;;;;5051729;28;20312;-70
2021/12/29 06:53:29;;;;;;;8.33;2.90;;;10.40;99.90;;;;;;5052101;28;20539;-71
2021/12/29 06:55:55;;;;;;;5.37;3.10;;;10.40;99.90;;;;;;5052316;28;20224;-70
2021/12/29 06:58:21;;;;;;;13.00;3.30;;;10.30;99.90;;;;;;5055432;28;20248;-71
2021/12/29 07:00:47;;;;;;;15.53;3.10;;;10.20;99.90;;;;;;5056087;28;20307;-70
2021/12/29 07:03:12;;;;;;;9.13;2.90;;;10.20;99.90;;;;;;5056030;28;20260;-71
2021/12/29 07:05:39;;;;;;;9.73;3.30;;;10.20;99.90;;;;;;5056283;28;20223;-70
2021/12/29 07:08:05;;;;;;;8.77;3.20;;;10.20;99.90;;;;;;5056467;28;20166;-70
2021/12/29 07:10:31;;;;;;;9.53;3.70;;;10.20;99.90;;;;;;5054404;28;20184;-69
2021/12/29 07:12:56;;;;;;;9.80;3.63;;;10.10;99.90;;;;;;5055554;28;20171;-71
2021/12/29 07:15:22;;;;;;;10.10;3.60;;;10.00;99.90;;;;;;5054098;28;20574;-70
2021/12/29 07:17:48;;;;;;;8.37;3.53;;;10.00;99.90;;;;;;5055048;28;20253;-70
2021/12/29 07:20:13;;;;;;;13.40;3.60;;;9.90;99.90;;;;;;5055878;28;20503;-71
2021/12/29 07:22:39;;;;;;;8.27;3.20;;;9.90;99.90;;;;;;5055075;28;20173;-71
2021/12/29 07:25:05;;;;;;;10.00;3.80;;;9.90;99.90;;;;;;5055540;28;20699;-71
2021/12/29 07:27:30;;;;;;;8.43;3.80;;;9.90;99.90;;;;;;5055579;28;20231;-70
2021/12/29 07:29:56;;;;;;;10.63;3.90;;;10.00;99.90;;;;;;5055131;28;20192;-70
2021/12/29 07:32:22;;;;;;;11.93;3.70;;;10.00;99.90;;;;;;5055600;28;20176;-71
2021/12/29 07:34:48;;;;;;;8.80;3.83;;;10.00;99.90;;;;;;5055599;28;20184;-70
2021/12/29 07:37:14;;;;;;;9.87;3.97;;;10.10;99.90;;;;;;5056056;28;20574;-71
2021/12/29 07:39:41;;;;;;;8.20;3.73;;;10.10;99.90;;;;;;5055595;28;20260;-70
2021/12/29 07:42:07;;;;;;;7.83;3.80;;;10.10;99.90;;;;;;5055037;28;20181;-70
2021/12/29 07:44:33;;;;;;;10.80;4.37;;;10.10;99.90;;;;;;5054931;28;20212;-70
2021/12/29 07:46:59;;;;;;;11.20;4.87;;;10.20;99.90;;;;;;5055511;28;20300;-71
2021/12/29 07:49:27;;;;;;;12.40;4.33;;;10.10;99.90;;;;;;5054982;28;20169;-71
2021/12/29 07:51:53;;;;;;;11.90;4.00;;;10.10;99.90;;;;;;5055593;28;20242;-69
2021/12/29 07:54:20;;;;;;;13.00;4.10;;;10.10;99.90;;;;;;5055141;28;20530;-70
2021/12/29 07:56:47;;;;;;;8.67;4.20;;;10.20;99.90;;;;;;5054626;28;20200;-71
2021/12/29 07:59:13;;;;;;;8.20;3.90;;;10.20;99.90;;;;;;5054372;28;20556;-71
2021/12/29 08:01:39;;;;;;;8.20;4.13;;;10.10;99.90;;;;;;5055404;28;20173;-71
2021/12/29 08:04:05;;;;;;;10.57;4.30;;;10.10;99.90;;;;;;5054668;28;20165;-70
2021/12/29 08:06:31;;;;;;;10.00;4.83;;;10.10;99.90;;;;;;5055652;28;20264;-70
2021/12/29 08:08:56;;;;;;;14.83;4.73;;;10.10;99.90;;;;;;5054109;28;20188;-70
2021/12/29 08:11:22;;;;;;;10.27;3.67;;;10.10;99.90;;;;;;5054152;28;20234;-70
2021/12/29 08:13:48;;;;;;;11.77;4.47;;;10.00;99.90;;;;;;5054501;28;20247;-70
2021/12/29 08:16:14;;;;;;;11.57;4.43;;;10.00;99.90;;;;;;5054777;28;20177;-70
2021/12/29 08:18:40;;;;;;;11.30;3.70;;;10.00;99.90;;;;;;5053649;28;20621;-70
2021/12/29 08:21:06;;;;;;;16.00;4.20;;;10.00;99.90;;;;;;5054625;28;20169;-70
2021/12/29 08:23:32;;;;;;;11.90;3.83;;;10.10;99.90;;;;;;5054655;28;20312;-70
2021/12/29 08:25:59;;;;;;;10.07;4.27;;;10.10;99.90;;;;;;5054207;28;20303;-70
2021/12/29 08:28:25;;;;;;;13.00;3.87;;;10.10;99.90;;;;;;5054521;28;20170;-70
2021/12/29 08:30:52;;;;;;;9.43;4.13;;;10.10;99.90;;;;;;5054865;28;20173;-71
2021/12/29 08:33:18;;;;;;;10.87;3.70;;;10.20;99.90;;;;;;5053666;28;20280;-70
2021/12/29 08:35:44;;;;;;;10.67;4.17;;;10.20;99.90;;;;;;5054751;28;20181;-71
2021/12/29 08:38:10;;;;;;;14.07;3.93;;;10.30;99.90;;;;;;5054481;28;20216;-71
2021/12/29 08:40:35;;;;;;;9.00;3.40;;;10.30;99.90;;;;;;5052918;28;20218;-70
2021/12/29 08:43:03;;;;;;;12.47;3.70;;;10.30;99.90;;;;;;5053529;28;20180;-71
2021/12/29 08:45:31;;;;;;;9.27;3.03;;;10.40;99.90;;;;;;5054394;28;20204;-70
2021/12/29 08:47:58;;;;;;;11.63;3.47;;;10.40;99.90;;;;;;5054337;28;20170;-70
2021/12/29 08:50:26;;;;;;;10.47;3.70;;;10.50;99.90;;;;;;5053709;28;20165;-70
2021/12/29 08:52:52;;;;;;;14.20;3.77;;;10.60;99.90;;;;;;5054275;28;20173;-70
2021/12/29 08:55:18;;;;;;;9.33;3.70;;;10.60;99.90;;;;;;5053431;28;20945;-70
2021/12/29 08:57:44;;;;;;;11.23;3.70;;;10.70;99.90;;;;;;5053486;28;20176;-70
2021/12/29 09:00:14;;;;;;;13.80;3.57;;;10.70;99.90;;;;;;5053940;28;20181;-71
2021/12/29 09:02:41;;;;;;;10.93;3.30;;;10.70;99.90;;;;;;5054054;28;20182;-71
2021/12/29 09:05:07;;;;;;;10.40;3.73;;;10.80;99.90;;;;;;5054211;28;20303;-71
2021/12/29 09:07:33;;;;;;;10.30;3.00;;;10.70;99.90;;;;;;5053598;28;20607;-71
2021/12/29 09:10:00;;;;;;;13.10;3.30;;;10.80;99.90;;;;;;5053834;28;20252;-70
2021/12/29 09:12:26;;;;;;;9.70;4.20;;;10.80;99.90;;;;;;5053174;28;20165;-70
2021/12/29 09:14:52;;;;;;;10.47;3.20;;;10.80;99.90;;;;;;5054143;28;20578;-71
2021/12/29 09:17:18;;;;;;;10.33;3.53;;;10.70;99.90;;;;;;5052729;28;20268;-71
2021/12/29 09:19:44;;;;;;;11.73;3.97;;;10.70;99.90;;;;;;5053302;28;20272;-70
2021/12/29 09:22:11;;;;;;;7.40;3.43;;;10.70;99.90;;;;;;5053498;28;20177;-70
2021/12/29 09:24:37;;;;;;;8.73;3.50;;;10.80;99.90;;;;;;5053064;28;20595;-70
2021/12/29 09:27:03;;;;;;;9.80;3.83;;;10.70;99.90;;;;;;5052331;28;20180;-71
2021/12/29 09:29:32;;;;;;;12.73;3.77;;;10.60;99.90;;;;;;5053952;28;20181;-71
2021/12/29 09:31:58;;;;;;;11.57;3.63;;;10.60;99.90;;;;;;5053267;28;20596;-71
2021/12/29 09:34:23;;;;;;;10.63;4.00;;;10.60;99.90;;;;;;5052944;28;20242;-71
2021/12/29 09:36:49;;;;;;;13.20;4.07;;;10.60;99.90;;;;;;5053343;28;20210;-71
2021/12/29 09:39:15;;;;;;;14.20;4.03;;;10.60;99.90;;;;;;5052793;28;20250;-71
2021/12/29 09:41:40;;;;;;;11.20;3.73;;;10.60;99.90;;;;;;5053154;28;20656;-70
2021/12/29 09:44:09;;;;;;;15.50;4.10;;;10.70;99.90;;;;;;5053115;28;20181;-70
2021/12/29 09:46:36;;;;;;;10.57;3.50;;;10.70;99.90;;;;;;5052887;28;20176;-72
2021/12/29 09:49:02;;;;;;;10.60;3.40;;;10.80;99.90;;;;;;5053190;28;20167;-70
2021/12/29 09:51:28;;;;;;;14.47;3.73;;;10.70;99.90;;;;;;5052773;28;20177;-71
2021/12/29 09:53:54;;;;;;;19.07;4.00;;;10.70;99.90;;;;;;5052778;28;20235;-71
2021/12/29 09:56:20;;;;;;;11.03;3.87;;;10.70;99.90;;;;;;5052680;28;20197;-72
2021/12/29 09:58:45;;;;;;;12.17;4.13;;;10.70;99.90;;;;;;5052809;28;20231;-72
2021/12/29 10:01:11;;;;;;;9.20;3.57;;;10.80;99.90;;;;;;5052603;28;20260;-71
2021/12/29 10:03:38;;;;;;;14.23;4.27;;;10.80;99.90;;;;;;5045970;28;20177;-72
2021/12/29 10:06:08;;;;;;;10.77;3.70;;;11.00;99.90;;;;;;5032927;28;20236;-72
2021/12/29 10:08:39;;;;;;;10.57;3.90;;;11.00;99.90;;;;;;5037371;28;20592;-71
2021/12/29 10:11:12;;;;;;;9.93;3.93;;;11.00;99.90;;;;;;5041590;28;20178;-71
2021/12/29 10:13:42;;;;;;;11.47;4.23;;;11.00;99.90;;;;;;5046703;28;20187;-69
2021/12/29 10:16:24;;;;;;;7.07;3.73;;;11.00;99.90;;;;;;5036385;28;20182;-70
2021/12/29 10:18:59;;;;;;;8.30;3.87;;;10.90;99.90;;;;;;5047137;28;20174;-70
2021/12/29 10:21:27;;;;;;;6.93;3.80;;;10.80;99.90;;;;;;5034227;28;20182;-71
2021/12/29 10:23:55;;;;;;;9.70;4.70;;;10.80;99.90;;;;;;5031470;28;20217;-71
2021/12/29 10:26:22;;;;;;;11.13;5.20;;;10.90;99.90;;;;;;5036440;28;20209;-70
2021/12/29 10:28:51;;;;;;;10.73;5.10;;;10.80;99.90;;;;;;5042711;28;20637;-70
2021/12/29 10:31:22;;;;;;;9.93;4.57;;;10.90;99.90;;;;;;5033134;28;20174;-71
2021/12/29 10:33:54;;;;;;;10.37;4.93;;;11.00;99.90;;;;;;5032933;28;20200;-70
2021/12/29 10:36:32;;;;;;;13.97;5.03;;;11.00;99.90;;;;;;5032399;28;20205;-70
2021/12/29 10:39:25;;;;;;;9.33;5.17;;;11.10;99.90;;;;;;5045209;28;20174;-71
2021/12/29 10:41:55;;;;;;;10.00;4.73;;;11.20;99.90;;;;;;5036925;28;20174;-71
2021/12/29 10:44:27;;;;;;;10.73;5.40;;;11.10;99.90;;;;;;5032966;28;20267;-71
2021/12/29 10:46:56;;;;;;;13.37;5.73;;;11.10;99.90;;;;;;5032289;28;20208;-72
2021/12/29 10:49:23;;;;;;;11.77;5.90;;;11.10;99.90;;;;;;5032253;28;20242;-72
2021/12/29 10:51:49;;;;;;;10.87;5.97;;;11.20;99.90;;;;;;5031675;28;20172;-71
2021/12/29 10:54:24;;;;;;;12.27;5.93;;;11.30;99.90;;;;;;5032290;28;20528;-71
2021/12/29 10:57:06;;;;;;;13.27;6.17;;;11.40;99.90;;;;;;5031940;28;20199;-72
2021/12/29 10:59:35;;;;;;;13.60;6.30;;;11.50;99.90;;;;;;5032106;28;20178;-72
2021/12/29 11:02:02;;;;;;;13.20;5.97;;;11.40;99.90;;;;;;5032012;28;20173;-72
2021/12/29 11:04:27;;;;;;;11.10;5.50;;;11.40;99.90;;;;;;5031602;28;20198;-72
2021/12/29 11:06:56;;;;;;;10.57;5.57;;;11.50;99.90;;;;;;5032194;28;20189;-72
2021/12/29 11:09:27;;;;;;;11.90;5.70;;;11.50;99.90;;;;;;5031585;28;20248;-71
2021/12/29 11:11:54;;;;;;;10.30;5.37;;;11.50;99.90;;;;;;5031709;28;20529;-72
2021/12/29 11:14:25;;;;;;;10.47;5.27;;;11.50;99.90;;;;;;5032625;28;20261;-71
2021/12/29 11:17:10;;;;;;;12.50;5.53;;;11.40;99.90;;;;;;5031354;28;20198;-72
2021/12/29 11:19:43;;;;;;;10.13;5.03;;;11.40;99.90;;;;;;5032360;28;20197;-72
2021/12/29 11:22:15;;;;;;;9.60;5.07;;;11.40;99.90;;;;;;5031500;28;20174;-72
2021/12/29 11:24:42;;;;;;;11.17;5.77;;;11.40;99.90;;;;;;5031920;28;20225;-72
2021/12/29 11:27:15;;;;;;;10.80;5.07;;;11.50;99.90;;;;;;5032355;28;20268;-71
2021/12/29 11:29:55;;;;;;;10.07;5.50;;;11.60;99.90;;;;;;5032246;28;20174;-71
2021/12/29 11:32:30;;;;;;;10.03;4.57;;;11.60;99.90;;;;;;5031734;28;20162;-72
2021/12/29 11:35:16;;;;;;;11.47;4.90;;;11.60;99.90;;;;;;5032196;28;20275;-71
2021/12/29 11:37:47;;;;;;;9.10;4.83;;;11.60;99.90;;;;;;5031393;28;20174;-71
2021/12/29 11:40:17;;;;;;;9.67;4.73;;;11.70;99.90;;;;;;5031578;28;20166;-71
2021/12/29 11:42:43;;;;;;;6.83;3.93;;;11.70;99.90;;;;;;5032353;28;20301;-71
2021/12/29 11:45:10;;;;;;;13.93;4.80;;;11.60;99.90;;;;;;5034891;28;20683;-70
2021/12/29 11:47:36;;;;;;;9.07;4.60;;;11.60;99.90;;;;;;5035301;28;20638;-71
2021/12/29 11:50:05;;;;;;;9.47;4.90;;;11.60;99.90;;;;;;5034985;28;20166;-72
2021/12/29 11:52:46;;;;;;;11.13;5.33;;;11.70;99.90;;;;;;5035014;28;20170;-71
2021/12/29 11:55:29;;;;;;;12.77;5.80;;;11.70;99.90;;;;;;5035373;28;20170;-72
2021/12/29 11:57:55;;;;;;;9.23;5.27;;;11.70;99.90;;;;;;5034938;28;20166;-71
2021/12/29 12:00:22;;;;;;;10.87;5.97;;;11.80;99.90;;;;;;5035292;28;20173;-71
2021/12/29 12:02:51;;;;;;;10.30;6.50;;;11.80;99.90;;;;;;5034778;28;20180;-72
2021/12/29 12:05:22;;;;;;;10.47;6.33;;;11.90;99.90;;;;;;5034736;28;20212;-71
2021/12/29 12:07:48;;;;;;;12.23;6.00;;;11.90;99.90;;;;;;5033685;28;20178;-71
2021/12/29 12:10:35;;;;;;;7.87;5.00;;;11.90;99.90;;;;;;5035106;28;20174;-71
2021/12/29 12:13:19;;;;;;;8.23;4.83;;;11.80;99.90;;;;;;5034939;28;20173;-72
2021/12/29 12:15:44;;;;;;;6.53;4.33;;;11.80;99.90;;;;;;5034948;28;20172;-72
2021/12/29 12:18:10;;;;;;;8.33;3.90;;;11.80;99.90;;;;;;5034709;28;20256;-71
2021/12/29 12:20:45;;;;;;;11.33;5.60;;;11.70;99.90;;;;;;5034127;28;20184;-71
2021/12/29 12:23:29;;;;;;;489.10;351.60;;;11.70;99.90;;;;;;5034809;28;20232;-72
2021/12/29 12:26:08;;;;;;;25.93;16.97;;;11.50;99.90;;;;;;5034598;28;20224;-72
2021/12/29 12:28:44;;;;;;;22.90;13.37;;;11.40;99.90;;;;;;5035036;28;20173;-70
2021/12/29 12:31:24;;;;;;;107.23;96.27;;;11.50;99.90;;;;;;5034256;28;20170;-71
2021/12/29 12:33:50;;;;;;;8.60;3.80;;;11.40;99.90;;;;;;5034102;28;20161;-72
2021/12/29 12:36:16;;;;;;;10.27;6.20;;;11.40;99.90;;;;;;5033794;28;20699;-72
2021/12/29 12:38:43;;;;;;;9.17;5.63;;;11.30;99.90;;;;;;5034884;28;20166;-70
2021/12/29 12:41:17;;;;;;;8.67;5.50;;;11.30;99.90;;;;;;5034443;28;20177;-71
2021/12/29 12:43:57;;;;;;;11.57;4.40;;;11.30;99.90;;;;;;5033850;28;20161;-71
2021/12/29 12:46:39;;;;;;;7.97;4.03;;;11.30;99.90;;;;;;5033677;28;20260;-72
2021/12/29 12:49:20;;;;;;;4.87;3.53;;;11.30;99.90;;;;;;5033347;28;20719;-72